createdAt,value
2017-12-21T00:00:38.531Z,0
2017-12-21T00:01:39.013Z,0
2017-12-21T00:02:38.442Z,0
2017-12-21T00:03:38.777Z,0
2017-12-21T00:04:38.819Z,0
2017-12-21T00:05:38.947Z,0
2017-12-21T00:06:39.217Z,0
2017-12-21T00:07:38.647Z,0
2017-12-21T00:08:39.022Z,0
2017-12-21T00:09:38.677Z,0
2017-12-21T00:10:38.569Z,0
2017-12-21T00:11:38.233Z,0
2017-12-21T00:12:38.324Z,0
2017-12-21T00:13:38.623Z,0
2017-12-21T00:14:38.229Z,0
2017-12-21T00:15:38.562Z,0
2017-12-21T00:16:38.453Z,0
2017-12-21T00:17:39.073Z,0
2017-12-21T00:18:38.439Z,0
2017-12-21T00:19:38.183Z,0
2017-12-21T00:20:38.779Z,0
2017-12-21T00:21:38.208Z,0
2017-12-21T00:22:38.686Z,0
2017-12-21T00:23:38.108Z,0
2017-12-21T00:24:38.296Z,0
2017-12-21T00:25:38.401Z,0
2017-12-21T00:26:38.283Z,0
2017-12-21T00:27:38.343Z,0
2017-12-21T00:28:38.362Z,0
2017-12-21T00:29:38.068Z,0
2017-12-21T00:30:38.016Z,0
2017-12-21T00:31:38.282Z,0
2017-12-21T00:32:38.831Z,0
2017-12-21T00:33:38.536Z,0
2017-12-21T00:34:38.198Z,0
2017-12-21T00:35:37.935Z,0
2017-12-21T00:36:38.257Z,0
2017-12-21T00:37:38.283Z,0
2017-12-21T00:38:38.210Z,0
2017-12-21T00:39:37.856Z,0
2017-12-21T00:40:38.454Z,0
2017-12-21T00:41:38.228Z,0
2017-12-21T00:42:37.851Z,0
2017-12-21T00:43:38.112Z,0
2017-12-21T00:44:38.075Z,0
2017-12-21T00:45:38.073Z,0
2017-12-21T00:46:38.410Z,0
2017-12-21T00:47:38.085Z,0
2017-12-21T00:48:38.005Z,0
2017-12-21T00:49:37.927Z,0
2017-12-21T00:50:38.263Z,0
2017-12-21T00:51:38.286Z,0
2017-12-21T00:52:37.610Z,0
2017-12-21T00:53:37.998Z,0
2017-12-21T00:54:38.190Z,0
2017-12-21T00:55:37.572Z,0
2017-12-21T00:56:37.869Z,0
2017-12-21T00:57:37.837Z,0
2017-12-21T00:58:38.148Z,0
2017-12-21T00:59:37.601Z,0
2017-12-21T01:00:37.821Z,0
2017-12-21T01:01:37.599Z,0
2017-12-21T01:02:37.897Z,0
2017-12-21T01:03:37.759Z,0
2017-12-21T01:04:38.020Z,0
2017-12-21T01:05:38.080Z,0
2017-12-21T01:06:37.621Z,0
2017-12-21T01:07:37.955Z,0
2017-12-21T01:08:37.436Z,0
2017-12-21T01:09:37.324Z,0
2017-12-21T01:10:37.734Z,0
2017-12-21T01:11:37.983Z,0
2017-12-21T01:12:37.890Z,0
2017-12-21T01:13:37.321Z,0
2017-12-21T01:14:37.249Z,0
2017-12-21T01:15:37.560Z,0
2017-12-21T01:16:38.077Z,0
2017-12-21T01:17:37.581Z,0
2017-12-21T01:18:37.481Z,0
2017-12-21T01:19:37.691Z,0
2017-12-21T01:20:37.414Z,0
2017-12-21T01:21:37.719Z,0
2017-12-21T01:22:37.115Z,0
2017-12-21T01:23:37.177Z,0
2017-12-21T01:24:37.798Z,0
2017-12-21T01:25:37.349Z,0
2017-12-21T01:26:37.330Z,0
2017-12-21T01:27:37.670Z,0
2017-12-21T01:28:37.380Z,0
2017-12-21T01:29:37.405Z,0
2017-12-21T01:30:37.553Z,0
2017-12-21T01:31:36.990Z,0
2017-12-21T01:32:36.995Z,0
2017-12-21T01:33:36.960Z,0
2017-12-21T01:34:37.373Z,0
2017-12-21T01:35:37.561Z,0
2017-12-21T01:36:36.817Z,0
2017-12-21T01:37:37.127Z,0
2017-12-21T01:38:36.845Z,0
2017-12-21T01:39:36.870Z,0
2017-12-21T01:40:36.857Z,0
2017-12-21T01:41:36.824Z,0
2017-12-21T01:42:37.380Z,0
2017-12-21T01:43:37.149Z,0
2017-12-21T01:44:37.304Z,0
2017-12-21T01:45:37.672Z,0
2017-12-21T01:46:36.977Z,0
2017-12-21T01:47:36.872Z,0
2017-12-21T01:48:36.648Z,0
2017-12-21T01:49:36.589Z,0
2017-12-21T01:50:37.251Z,0
2017-12-21T01:51:36.986Z,0
2017-12-21T01:52:37.149Z,0
2017-12-21T01:53:36.668Z,0
2017-12-21T01:54:37.111Z,0
2017-12-21T01:55:36.788Z,0
2017-12-21T01:56:36.843Z,0
2017-12-21T01:57:37.082Z,0
2017-12-21T01:58:36.818Z,0
2017-12-21T01:59:36.467Z,0
2017-12-21T02:00:36.453Z,0
2017-12-21T02:01:36.760Z,0
2017-12-21T02:02:36.613Z,0
2017-12-21T02:03:36.363Z,0
2017-12-21T02:04:36.542Z,0
2017-12-21T02:05:36.316Z,0
2017-12-21T02:06:36.512Z,0
2017-12-21T02:07:36.733Z,0
2017-12-21T02:08:36.588Z,0
2017-12-21T02:09:36.455Z,0
2017-12-21T02:10:36.500Z,0
2017-12-21T02:11:36.539Z,0
2017-12-21T02:12:36.472Z,0
2017-12-21T02:13:36.152Z,0
2017-12-21T02:14:37.048Z,0
2017-12-21T02:15:36.276Z,0
2017-12-21T02:16:36.261Z,0
2017-12-21T02:17:36.527Z,0
2017-12-21T02:18:36.242Z,0
2017-12-21T02:19:35.936Z,0
2017-12-21T02:20:36.470Z,0
2017-12-21T02:21:35.916Z,0
2017-12-21T02:22:35.885Z,0
2017-12-21T02:23:36.219Z,0
2017-12-21T02:24:36.119Z,0
2017-12-21T02:25:36.105Z,0
2017-12-21T02:26:36.367Z,0
2017-12-21T02:27:36.065Z,0
2017-12-21T02:28:35.785Z,0
2017-12-21T02:29:35.781Z,0
2017-12-21T02:30:36.030Z,0
2017-12-21T02:31:36.270Z,0
2017-12-21T02:32:36.256Z,0
2017-12-21T02:33:35.969Z,0
2017-12-21T02:34:35.953Z,0
2017-12-21T02:35:36.206Z,0
2017-12-21T02:36:35.647Z,0
2017-12-21T02:37:35.647Z,0
2017-12-21T02:38:35.607Z,0
2017-12-21T02:39:36.149Z,0
2017-12-21T02:40:36.135Z,0
2017-12-21T02:41:36.097Z,0
2017-12-21T02:42:36.087Z,0
2017-12-21T02:43:35.795Z,0
2017-12-21T02:44:35.778Z,0
2017-12-21T02:45:36.032Z,0
2017-12-21T02:46:36.025Z,0
2017-12-21T02:47:35.996Z,0
2017-12-21T02:48:35.708Z,0
2017-12-21T02:49:35.966Z,0
2017-12-21T02:50:36.238Z,0
2017-12-21T02:51:36.206Z,0
2017-12-21T02:52:35.637Z,0
2017-12-21T02:53:35.911Z,0
2017-12-21T02:54:35.606Z,0
2017-12-21T02:55:35.863Z,0
2017-12-21T02:56:35.590Z,0
2017-12-21T02:57:35.831Z,0
2017-12-21T02:58:35.260Z,0
2017-12-21T02:59:36.050Z,0
2017-12-21T03:00:35.786Z,0
2017-12-21T03:01:35.260Z,0
2017-12-21T03:02:35.464Z,0
2017-12-21T03:03:35.452Z,0
2017-12-21T03:04:35.708Z,0
2017-12-21T03:05:35.680Z,0
2017-12-21T03:06:35.120Z,0
2017-12-21T03:07:35.378Z,0
2017-12-21T03:08:35.899Z,0
2017-12-21T03:09:35.069Z,0
2017-12-21T03:10:35.322Z,0
2017-12-21T03:11:35.033Z,0
2017-12-21T03:12:35.033Z,0
2017-12-21T03:13:35.279Z,0
2017-12-21T03:14:35.367Z,0
2017-12-21T03:15:34.975Z,0
2017-12-21T03:16:35.227Z,0
2017-12-21T03:17:35.475Z,0
2017-12-21T03:18:35.468Z,0
2017-12-21T03:19:34.894Z,0
2017-12-21T03:20:35.169Z,0
2017-12-21T03:21:35.674Z,0
2017-12-21T03:22:34.846Z,0
2017-12-21T03:23:35.385Z,0
2017-12-21T03:24:35.409Z,0
2017-12-21T03:25:35.064Z,0
2017-12-21T03:26:35.043Z,0
2017-12-21T03:27:35.045Z,0
2017-12-21T03:28:34.739Z,0
2017-12-21T03:29:34.996Z,0
2017-12-21T03:30:34.985Z,0
2017-12-21T03:31:35.232Z,0
2017-12-21T03:32:34.947Z,0
2017-12-21T03:33:34.649Z,0
2017-12-21T03:34:34.920Z,0
2017-12-21T03:35:34.907Z,0
2017-12-21T03:36:34.600Z,0
2017-12-21T03:37:34.853Z,0
2017-12-21T03:38:34.572Z,0
2017-12-21T03:39:35.095Z,0
2017-12-21T03:40:34.529Z,0
2017-12-21T03:41:34.515Z,0
2017-12-21T03:42:35.064Z,0
2017-12-21T03:43:34.476Z,0
2017-12-21T03:44:34.461Z,0
2017-12-21T03:45:34.717Z,0
2017-12-21T03:46:34.697Z,0
2017-12-21T03:47:34.680Z,0
2017-12-21T03:48:34.391Z,0
2017-12-21T03:49:34.938Z,0
2017-12-21T03:50:34.895Z,0
2017-12-21T03:51:34.616Z,0
2017-12-21T03:52:34.593Z,0
2017-12-21T03:53:35.120Z,0
2017-12-21T03:54:34.571Z,0
2017-12-21T03:55:34.809Z,0
2017-12-21T03:56:34.537Z,0
2017-12-21T03:57:34.502Z,0
2017-12-21T03:58:34.483Z,0
2017-12-21T03:59:34.470Z,0
2017-12-21T04:00:34.469Z,0
2017-12-21T04:01:34.161Z,0
2017-12-21T04:02:34.710Z,0
2017-12-21T04:03:34.401Z,0
2017-12-21T04:04:34.106Z,0
2017-12-21T04:05:34.362Z,0
2017-12-21T04:06:34.367Z,0
2017-12-21T04:07:34.349Z,0
2017-12-21T04:08:34.310Z,0
2017-12-21T04:09:34.332Z,0
2017-12-21T04:10:34.021Z,0
2017-12-21T04:11:33.993Z,0
2017-12-21T04:12:33.986Z,0
2017-12-21T04:13:34.498Z,0
2017-12-21T04:14:34.483Z,0
2017-12-21T04:15:33.913Z,0
2017-12-21T04:16:34.169Z,0
2017-12-21T04:17:34.425Z,0
2017-12-21T04:18:34.410Z,0
2017-12-21T04:19:34.396Z,0
2017-12-21T04:20:34.097Z,0
2017-12-21T04:21:34.356Z,0
2017-12-21T04:22:34.404Z,0
2017-12-21T04:23:33.777Z,0
2017-12-21T04:24:34.303Z,0
2017-12-21T04:25:34.010Z,0
2017-12-21T04:26:33.996Z,0
2017-12-21T04:27:33.708Z,0
2017-12-21T04:28:33.958Z,0
2017-12-21T04:29:33.964Z,0
2017-12-21T04:30:33.669Z,0
2017-12-21T04:31:33.637Z,0
2017-12-21T04:32:33.624Z,0
2017-12-21T04:33:34.147Z,0
2017-12-21T04:34:34.128Z,0
2017-12-21T04:35:34.121Z,0
2017-12-21T04:36:33.549Z,0
2017-12-21T04:37:34.075Z,0
2017-12-21T04:38:34.058Z,0
2017-12-21T04:39:33.516Z,0
2017-12-21T04:40:33.480Z,0
2017-12-21T04:41:33.736Z,0
2017-12-21T04:42:34.004Z,0
2017-12-21T04:43:33.429Z,0
2017-12-21T04:44:33.717Z,0
2017-12-21T04:45:33.669Z,0
2017-12-21T04:46:33.379Z,0
2017-12-21T04:47:33.919Z,0
2017-12-21T04:48:33.642Z,0
2017-12-21T04:49:33.599Z,0
2017-12-21T04:50:33.310Z,0
2017-12-21T04:51:33.293Z,0
2017-12-21T04:52:33.822Z,0
2017-12-21T04:53:33.800Z,0
2017-12-21T04:54:33.518Z,0
2017-12-21T04:55:33.221Z,0
2017-12-21T04:56:33.749Z,0
2017-12-21T04:57:33.486Z,0
2017-12-21T04:58:33.990Z,0
2017-12-21T04:59:33.424Z,0
2017-12-21T05:00:33.408Z,0
2017-12-21T05:01:33.391Z,0
2017-12-21T05:02:33.376Z,0
2017-12-21T05:03:33.634Z,0
2017-12-21T05:04:33.339Z,0
2017-12-21T05:05:33.591Z,0
2017-12-21T05:06:33.591Z,0
2017-12-21T05:07:33.582Z,0
2017-12-21T05:08:33.545Z,0
2017-12-21T05:09:33.274Z,0
2017-12-21T05:10:33.506Z,0
2017-12-21T05:11:33.217Z,0
2017-12-21T05:12:32.945Z,0
2017-12-21T05:13:32.910Z,0
2017-12-21T05:14:32.899Z,0
2017-12-21T05:15:33.147Z,0
2017-12-21T05:16:32.889Z,0
2017-12-21T05:17:33.385Z,0
2017-12-21T05:18:33.114Z,0
2017-12-21T05:19:32.805Z,0
2017-12-21T05:20:33.060Z,0
2017-12-21T05:21:33.069Z,0
2017-12-21T05:22:33.035Z,0
2017-12-21T05:23:33.009Z,0
2017-12-21T05:24:33.267Z,0
2017-12-21T05:25:32.974Z,0
2017-12-21T05:26:32.685Z,0
2017-12-21T05:27:32.942Z,0
2017-12-21T05:28:33.212Z,0
2017-12-21T05:29:32.923Z,0
2017-12-21T05:30:33.167Z,0
2017-12-21T05:31:32.602Z,0
2017-12-21T05:32:32.583Z,0
2017-12-21T05:33:32.565Z,0
2017-12-21T05:34:32.566Z,0
2017-12-21T05:35:32.803Z,0
2017-12-21T05:36:32.806Z,0
2017-12-21T05:37:33.038Z,0
2017-12-21T05:38:32.508Z,0
2017-12-21T05:39:32.738Z,0
2017-12-21T05:40:32.723Z,0
2017-12-21T05:41:32.758Z,0
2017-12-21T05:42:32.684Z,0
2017-12-21T05:43:32.663Z,0
2017-12-21T05:44:32.378Z,0
2017-12-21T05:45:32.904Z,0
2017-12-21T05:46:32.898Z,0
2017-12-21T05:47:33.164Z,0
2017-12-21T05:48:32.316Z,0
2017-12-21T05:49:32.563Z,0
2017-12-21T05:50:32.563Z,0
2017-12-21T05:51:32.556Z,0
2017-12-21T05:52:32.783Z,0
2017-12-21T05:53:32.767Z,0
2017-12-21T05:54:33.017Z,0
2017-12-21T05:55:32.458Z,0
2017-12-21T05:56:32.441Z,0
2017-12-21T05:57:32.422Z,0
2017-12-21T05:58:32.162Z,0
2017-12-21T05:59:32.389Z,0
2017-12-21T06:00:32.382Z,0
2017-12-21T06:01:32.643Z,0
2017-12-21T06:02:32.364Z,0
2017-12-21T06:03:32.319Z,0
2017-12-21T06:04:32.363Z,0
2017-12-21T06:05:32.830Z,0
2017-12-21T06:06:32.274Z,0
2017-12-21T06:07:32.793Z,0
2017-12-21T06:08:32.234Z,0
2017-12-21T06:09:32.219Z,0
2017-12-21T06:10:31.928Z,0
2017-12-21T06:11:32.179Z,0
2017-12-21T06:12:32.460Z,0
2017-12-21T06:13:32.464Z,0
2017-12-21T06:14:32.136Z,0
2017-12-21T06:15:32.384Z,0
2017-12-21T06:16:32.122Z,0
2017-12-21T06:17:32.373Z,0
2017-12-21T06:18:31.789Z,0
2017-12-21T06:19:32.336Z,0
2017-12-21T06:20:32.028Z,0
2017-12-21T06:21:32.283Z,0
2017-12-21T06:22:32.002Z,0
2017-12-21T06:23:31.995Z,0
2017-12-21T06:24:31.977Z,0
2017-12-21T06:25:32.231Z,0
2017-12-21T06:26:32.491Z,0
2017-12-21T06:27:31.905Z,0
2017-12-21T06:28:31.889Z,0
2017-12-21T06:29:31.882Z,0
2017-12-21T06:30:31.859Z,0
2017-12-21T06:31:32.122Z,0
2017-12-21T06:32:31.549Z,0
2017-12-21T06:33:32.077Z,0
2017-12-21T06:34:31.513Z,0
2017-12-21T06:35:31.492Z,0
2017-12-21T06:36:32.299Z,0
2017-12-21T06:37:31.753Z,0
2017-12-21T06:38:31.733Z,0
2017-12-21T06:39:31.698Z,4
2017-12-21T06:40:31.684Z,4
2017-12-21T06:41:31.946Z,0
2017-12-21T06:42:31.653Z,4
2017-12-21T06:43:31.651Z,4
2017-12-21T06:44:31.612Z,4
2017-12-21T06:45:31.888Z,4
2017-12-21T06:46:31.851Z,8
2017-12-21T06:47:31.290Z,8
2017-12-21T06:48:31.541Z,8
2017-12-21T06:49:31.604Z,8
2017-12-21T06:50:31.509Z,8
2017-12-21T06:51:31.760Z,12
2017-12-21T06:52:31.215Z,16
2017-12-21T06:53:31.490Z,20
2017-12-21T06:54:31.443Z,24
2017-12-21T06:55:31.434Z,24
2017-12-21T06:56:31.740Z,28
2017-12-21T06:57:31.386Z,36
2017-12-21T06:58:31.097Z,36
2017-12-21T06:59:31.102Z,40
2017-12-21T07:00:31.084Z,48
2017-12-21T07:01:31.319Z,52
2017-12-21T07:02:31.575Z,60
2017-12-21T07:03:31.315Z,68
2017-12-21T07:04:31.557Z,72
2017-12-21T07:05:30.985Z,72
2017-12-21T07:06:31.232Z,80
2017-12-21T07:07:31.226Z,92
2017-12-21T07:08:31.207Z,92
2017-12-21T07:09:31.179Z,100
2017-12-21T07:10:30.913Z,108
2017-12-21T07:11:31.420Z,116
2017-12-21T07:12:31.127Z,120
2017-12-21T07:13:31.136Z,128
2017-12-21T07:14:31.368Z,132
2017-12-21T07:15:30.822Z,140
2017-12-21T07:16:30.787Z,156
2017-12-21T07:17:31.326Z,168
2017-12-21T07:18:31.026Z,192
2017-12-21T07:19:31.024Z,212
2017-12-21T07:20:30.993Z,224
2017-12-21T07:21:31.246Z,232
2017-12-21T07:22:30.967Z,248
2017-12-21T07:23:31.211Z,244
2017-12-21T07:24:31.214Z,256
2017-12-21T07:25:30.633Z,264
2017-12-21T07:26:30.897Z,268
2017-12-21T07:27:30.895Z,292
2017-12-21T07:28:30.869Z,296
2017-12-21T07:29:31.123Z,312
2017-12-21T07:30:30.546Z,332
2017-12-21T07:31:30.528Z,356
2017-12-21T07:32:31.063Z,384
2017-12-21T07:33:30.781Z,424
2017-12-21T07:34:30.531Z,432
2017-12-21T07:35:30.757Z,432
2017-12-21T07:36:31.033Z,472
2017-12-21T07:37:30.426Z,496
2017-12-21T07:38:30.683Z,484
2017-12-21T07:39:30.391Z,472
2017-12-21T07:40:30.923Z,456
2017-12-21T07:41:30.911Z,476
2017-12-21T07:42:30.890Z,500
2017-12-21T07:43:30.326Z,496
2017-12-21T07:44:30.851Z,464
2017-12-21T07:45:30.562Z,500
2017-12-21T07:46:30.544Z,540
2017-12-21T07:47:30.529Z,560
2017-12-21T07:48:30.557Z,556
2017-12-21T07:49:30.492Z,568
2017-12-21T07:50:30.496Z,576
2017-12-21T07:51:30.459Z,564
2017-12-21T07:52:30.175Z,596
2017-12-21T07:53:30.173Z,568
2017-12-21T07:54:30.143Z,564
2017-12-21T07:55:30.119Z,600
2017-12-21T07:56:30.117Z,604
2017-12-21T07:57:30.629Z,616
2017-12-21T07:58:30.620Z,644
2017-12-21T07:59:30.324Z,680
2017-12-21T08:00:30.309Z,676
2017-12-21T08:01:30.291Z,668
2017-12-21T08:02:30.269Z,652
2017-12-21T08:03:30.813Z,636
2017-12-21T08:04:30.536Z,600
2017-12-21T08:05:30.221Z,624
2017-12-21T08:06:30.440Z,636
2017-12-21T08:07:30.754Z,672
2017-12-21T08:08:30.186Z,728
2017-12-21T08:09:30.447Z,732
2017-12-21T08:10:30.408Z,764
2017-12-21T08:11:30.118Z,792
2017-12-21T08:12:30.102Z,772
2017-12-21T08:13:30.100Z,796
2017-12-21T08:14:30.083Z,800
2017-12-21T08:15:30.068Z,820
2017-12-21T08:16:30.037Z,836
2017-12-21T08:17:30.059Z,828
2017-12-21T08:18:30.025Z,828
2017-12-21T08:19:30.264Z,800
2017-12-21T08:20:30.527Z,776
2017-12-21T08:21:29.945Z,772
2017-12-21T08:22:29.657Z,812
2017-12-21T08:23:29.933Z,816
2017-12-21T08:24:29.906Z,860
2017-12-21T08:25:30.147Z,872
2017-12-21T08:26:29.863Z,940
2017-12-21T08:27:29.852Z,1048
2017-12-21T08:28:30.100Z,1140
2017-12-21T08:29:29.808Z,1188
2017-12-21T08:30:30.086Z,1260
2017-12-21T08:31:29.783Z,1344
2017-12-21T08:32:29.488Z,1360
2017-12-21T08:33:29.475Z,1372
2017-12-21T08:34:30.001Z,1428
2017-12-21T08:35:29.440Z,1396
2017-12-21T08:36:29.965Z,1448
2017-12-21T08:37:29.671Z,1460
2017-12-21T08:38:29.662Z,1456
2017-12-21T08:39:29.642Z,1416
2017-12-21T08:40:29.626Z,1392
2017-12-21T08:41:29.884Z,1288
2017-12-21T08:42:29.887Z,1304
2017-12-21T08:43:29.573Z,1376
2017-12-21T08:44:30.149Z,1464
2017-12-21T08:45:29.862Z,1396
2017-12-21T08:46:29.808Z,1244
2017-12-21T08:47:29.523Z,1068
2017-12-21T08:48:29.510Z,1008
2017-12-21T08:49:29.502Z,1032
2017-12-21T08:50:29.738Z,1064
2017-12-21T08:51:29.734Z,1108
2017-12-21T08:52:29.972Z,1132
2017-12-21T08:53:29.134Z,1188
2017-12-21T08:54:29.664Z,1240
2017-12-21T08:55:29.121Z,1236
2017-12-21T08:56:29.635Z,1276
2017-12-21T08:57:29.083Z,1292
2017-12-21T08:58:29.662Z,1268
2017-12-21T08:59:29.577Z,1344
2017-12-21T09:00:29.324Z,1312
2017-12-21T09:01:29.008Z,1320
2017-12-21T09:02:29.550Z,1300
2017-12-21T09:03:28.985Z,1292
2017-12-21T09:04:29.500Z,1252
2017-12-21T09:05:28.935Z,1252
2017-12-21T09:06:29.478Z,1236
2017-12-21T09:07:29.173Z,1292
2017-12-21T09:08:29.436Z,1312
2017-12-21T09:09:29.425Z,1352
2017-12-21T09:10:29.135Z,1388
2017-12-21T09:11:29.117Z,1424
2017-12-21T09:12:29.091Z,1512
2017-12-21T09:13:29.367Z,1600
2017-12-21T09:14:29.330Z,1652
2017-12-21T09:15:29.049Z,1692
2017-12-21T09:16:28.754Z,1756
2017-12-21T09:17:29.010Z,1864
2017-12-21T09:18:28.719Z,1920
2017-12-21T09:19:28.975Z,1920
2017-12-21T09:20:28.955Z,1960
2017-12-21T09:21:28.676Z,2020
2017-12-21T09:22:28.651Z,2028
2017-12-21T09:23:29.182Z,1992
2017-12-21T09:24:28.896Z,2000
2017-12-21T09:25:28.602Z,1840
2017-12-21T09:26:29.174Z,1788
2017-12-21T09:27:29.387Z,1876
2017-12-21T09:28:28.827Z,1924
2017-12-21T09:29:28.538Z,1916
2017-12-21T09:30:29.060Z,1852
2017-12-21T09:31:28.794Z,1780
2017-12-21T09:32:28.760Z,1788
2017-12-21T09:33:28.493Z,1788
2017-12-21T09:34:28.727Z,1764
2017-12-21T09:35:28.437Z,1848
2017-12-21T09:36:28.702Z,1824
2017-12-21T09:37:28.420Z,1780
2017-12-21T09:38:28.677Z,1784
2017-12-21T09:39:28.383Z,1960
2017-12-21T09:40:28.896Z,2016
2017-12-21T09:41:28.613Z,1960
2017-12-21T09:42:28.592Z,2008
2017-12-21T09:43:28.577Z,2056
2017-12-21T09:44:28.609Z,2040
2017-12-21T09:45:28.548Z,2048
2017-12-21T09:46:28.820Z,2040
2017-12-21T09:47:28.805Z,1944
2017-12-21T09:48:28.495Z,1892
2017-12-21T09:49:28.478Z,2100
2017-12-21T09:50:28.189Z,2024
2017-12-21T09:51:28.458Z,1940
2017-12-21T09:52:28.741Z,1780
2017-12-21T09:53:28.167Z,1652
2017-12-21T09:54:28.966Z,1608
2017-12-21T09:55:28.673Z,1556
2017-12-21T09:56:28.407Z,1520
2017-12-21T09:57:28.081Z,1548
2017-12-21T09:58:28.063Z,1564
2017-12-21T09:59:28.870Z,1584
2017-12-21T10:00:28.604Z,1660
2017-12-21T10:01:28.307Z,1652
2017-12-21T10:02:28.266Z,1680
2017-12-21T10:03:28.571Z,1636
2017-12-21T10:04:27.956Z,1504
2017-12-21T10:05:28.251Z,1400
2017-12-21T10:06:28.211Z,1396
2017-12-21T10:07:28.183Z,1468
2017-12-21T10:08:28.222Z,1512
2017-12-21T10:09:28.201Z,1520
2017-12-21T10:10:28.159Z,1600
2017-12-21T10:11:28.425Z,1520
2017-12-21T10:12:28.116Z,1636
2017-12-21T10:13:28.081Z,1592
2017-12-21T10:14:28.342Z,1544
2017-12-21T10:15:28.091Z,1560
2017-12-21T10:16:28.310Z,1528
2017-12-21T10:17:27.765Z,1552
2017-12-21T10:18:28.015Z,1548
2017-12-21T10:19:28.012Z,1700
2017-12-21T10:20:28.504Z,1644
2017-12-21T10:21:28.250Z,1680
2017-12-21T10:22:28.205Z,1736
2017-12-21T10:23:27.927Z,1768
2017-12-21T10:24:27.906Z,1848
2017-12-21T10:25:27.891Z,1852
2017-12-21T10:26:27.615Z,1828
2017-12-21T10:27:27.581Z,1956
2017-12-21T10:28:27.887Z,1948
2017-12-21T10:29:27.841Z,2080
2017-12-21T10:30:27.531Z,2164
2017-12-21T10:31:27.747Z,2388
2017-12-21T10:32:27.768Z,2472
2017-12-21T10:33:28.034Z,2472
2017-12-21T10:34:27.775Z,2496
2017-12-21T10:35:27.994Z,2492
2017-12-21T10:36:28.013Z,2356
2017-12-21T10:37:27.958Z,2488
2017-12-21T10:38:27.391Z,2568
2017-12-21T10:39:27.382Z,2792
2017-12-21T10:40:27.647Z,2872
2017-12-21T10:41:27.626Z,3040
2017-12-21T10:42:27.597Z,3088
2017-12-21T10:43:27.860Z,3092
2017-12-21T10:44:27.322Z,3080
2017-12-21T10:45:27.600Z,2952
2017-12-21T10:46:27.813Z,3020
2017-12-21T10:47:27.788Z,2772
2017-12-21T10:48:27.791Z,2632
2017-12-21T10:49:27.484Z,2676
2017-12-21T10:50:27.536Z,2612
2017-12-21T10:51:27.469Z,2548
2017-12-21T10:52:27.441Z,2576
2017-12-21T10:53:27.144Z,2604
2017-12-21T10:54:27.407Z,2664
2017-12-21T10:55:27.676Z,2492
2017-12-21T10:56:27.675Z,2740
2017-12-21T10:57:27.652Z,2664
2017-12-21T10:58:27.615Z,2884
2017-12-21T10:59:27.590Z,2956
2017-12-21T11:00:27.034Z,3104
2017-12-21T11:01:27.627Z,3028
2017-12-21T11:02:27.603Z,2792
2017-12-21T11:03:27.320Z,2668
2017-12-21T11:04:27.254Z,2816
2017-12-21T11:05:26.959Z,2824
2017-12-21T11:06:27.207Z,2820
2017-12-21T11:07:27.205Z,2656
2017-12-21T11:08:26.923Z,2684
2017-12-21T11:09:26.887Z,2660
2017-12-21T11:10:27.141Z,2568
2017-12-21T11:11:27.402Z,2736
2017-12-21T11:12:27.384Z,2628
2017-12-21T11:13:27.373Z,2624
2017-12-21T11:14:27.076Z,2432
2017-12-21T11:15:27.064Z,2380
2017-12-21T11:16:27.314Z,2236
2017-12-21T11:17:27.323Z,2480
2017-12-21T11:18:27.036Z,2468
2017-12-21T11:19:27.004Z,2620
2017-12-21T11:20:26.986Z,2804
2017-12-21T11:21:26.714Z,2776
2017-12-21T11:22:27.278Z,3012
2017-12-21T11:23:26.660Z,3068
2017-12-21T11:24:27.202Z,3320
2017-12-21T11:25:26.923Z,3372
2017-12-21T11:26:26.615Z,3332
2017-12-21T11:27:27.412Z,3176
2017-12-21T11:28:27.128Z,3068
2017-12-21T11:29:27.118Z,3008
2017-12-21T11:30:26.544Z,3232
2017-12-21T11:31:27.100Z,3512
2017-12-21T11:32:26.793Z,3488
2017-12-21T11:33:26.778Z,3496
2017-12-21T11:34:26.493Z,3472
2017-12-21T11:35:27.025Z,3516
2017-12-21T11:36:26.996Z,3316
2017-12-21T11:37:26.429Z,3124
2017-12-21T11:38:26.712Z,2880
2017-12-21T11:39:26.715Z,2628
2017-12-21T11:40:26.390Z,2408
2017-12-21T11:41:26.671Z,2512
2017-12-21T11:42:26.933Z,2696
2017-12-21T11:43:26.336Z,2912
2017-12-21T11:44:26.941Z,2864
2017-12-21T11:45:26.599Z,2740
2017-12-21T11:46:26.289Z,2408
2017-12-21T11:47:26.270Z,2132
2017-12-21T11:48:26.803Z,2076
2017-12-21T11:49:26.785Z,2188
2017-12-21T11:50:26.498Z,2348
2017-12-21T11:51:26.484Z,2540
2017-12-21T11:52:26.485Z,2580
2017-12-21T11:53:26.723Z,2724
2017-12-21T11:54:26.737Z,2504
2017-12-21T11:55:26.732Z,2316
2017-12-21T11:56:26.148Z,2316
2017-12-21T11:57:26.669Z,2184
2017-12-21T11:58:26.093Z,2352
2017-12-21T11:59:26.627Z,2452
2017-12-21T12:00:26.063Z,2356
2017-12-21T12:01:26.595Z,2328
2017-12-21T12:02:26.304Z,2412
2017-12-21T12:03:26.312Z,2316
2017-12-21T12:04:26.000Z,2304
2017-12-21T12:05:26.257Z,2160
2017-12-21T12:06:26.238Z,2192
2017-12-21T12:07:26.784Z,2324
2017-12-21T12:08:26.295Z,2300
2017-12-21T12:09:26.479Z,2332
2017-12-21T12:10:26.539Z,2312
2017-12-21T12:11:26.180Z,2284
2017-12-21T12:12:26.412Z,2276
2017-12-21T12:13:26.395Z,2364
2017-12-21T12:14:26.111Z,2440
2017-12-21T12:15:25.850Z,2604
2017-12-21T12:16:26.383Z,2692
2017-12-21T12:17:25.790Z,2972
2017-12-21T12:18:25.793Z,2980
2017-12-21T12:19:26.580Z,2816
2017-12-21T12:20:26.027Z,2748
2017-12-21T12:21:26.547Z,2672
2017-12-21T12:22:26.019Z,2732
2017-12-21T12:23:26.238Z,2656
2017-12-21T12:24:26.250Z,2616
2017-12-21T12:25:25.678Z,2476
2017-12-21T12:26:26.217Z,2484
2017-12-21T12:27:25.902Z,2504
2017-12-21T12:28:26.433Z,2168
2017-12-21T12:29:25.872Z,2296
2017-12-21T12:30:25.869Z,2352
2017-12-21T12:31:25.862Z,2344
2017-12-21T12:32:26.115Z,2328
2017-12-21T12:33:26.099Z,2244
2017-12-21T12:34:25.811Z,2084
2017-12-21T12:35:25.777Z,2128
2017-12-21T12:36:25.765Z,2124
2017-12-21T12:37:25.738Z,2040
2017-12-21T12:38:26.321Z,1908
2017-12-21T12:39:25.987Z,1800
2017-12-21T12:40:25.693Z,1808
2017-12-21T12:41:25.440Z,1736
2017-12-21T12:42:25.680Z,1836
2017-12-21T12:43:25.704Z,1824
2017-12-21T12:44:25.641Z,1804
2017-12-21T12:45:25.615Z,1688
2017-12-21T12:46:26.151Z,1772
2017-12-21T12:47:25.320Z,1700
2017-12-21T12:48:25.592Z,1612
2017-12-21T12:49:25.588Z,1588
2017-12-21T12:50:25.535Z,1560
2017-12-21T12:51:25.251Z,1560
2017-12-21T12:52:25.516Z,1424
2017-12-21T12:53:25.532Z,1552
2017-12-21T12:54:25.200Z,1524
2017-12-21T12:55:25.469Z,1400
2017-12-21T12:56:25.434Z,1352
2017-12-21T12:57:25.432Z,1320
2017-12-21T12:58:25.437Z,1252
2017-12-21T12:59:25.402Z,1332
2017-12-21T13:00:25.379Z,1340
2017-12-21T13:01:25.356Z,1384
2017-12-21T13:02:25.617Z,1344
2017-12-21T13:03:25.326Z,1396
2017-12-21T13:04:25.589Z,1404
2017-12-21T13:05:25.845Z,1332
2017-12-21T13:06:25.327Z,1360
2017-12-21T13:07:25.284Z,1372
2017-12-21T13:08:25.288Z,1340
2017-12-21T13:09:25.588Z,1308
2017-12-21T13:10:25.228Z,1264
2017-12-21T13:11:25.214Z,1316
2017-12-21T13:12:25.207Z,1432
2017-12-21T13:13:25.461Z,1580
2017-12-21T13:14:25.694Z,1648
2017-12-21T13:15:24.878Z,1652
2017-12-21T13:16:24.859Z,1672
2017-12-21T13:17:25.103Z,1704
2017-12-21T13:18:25.085Z,1668
2017-12-21T13:19:24.804Z,1632
2017-12-21T13:20:24.786Z,1568
2017-12-21T13:21:25.318Z,1460
2017-12-21T13:22:25.344Z,1412
2017-12-21T13:23:25.035Z,1496
2017-12-21T13:24:25.262Z,1452
2017-12-21T13:25:24.712Z,1384
2017-12-21T13:26:24.702Z,1396
2017-12-21T13:27:25.505Z,1364
2017-12-21T13:28:25.194Z,1440
2017-12-21T13:29:25.264Z,1344
2017-12-21T13:30:25.212Z,1332
2017-12-21T13:31:24.918Z,1380
2017-12-21T13:32:24.882Z,1296
2017-12-21T13:33:24.593Z,1268
2017-12-21T13:34:24.846Z,1240
2017-12-21T13:35:25.102Z,1244
2017-12-21T13:36:24.803Z,1168
2017-12-21T13:37:24.781Z,1080
2017-12-21T13:38:25.045Z,1056
2017-12-21T13:39:25.062Z,1016
2017-12-21T13:40:24.751Z,1020
2017-12-21T13:41:24.473Z,1000
2017-12-21T13:42:24.467Z,1048
2017-12-21T13:43:24.695Z,1064
2017-12-21T13:44:24.411Z,1096
2017-12-21T13:45:25.204Z,1104
2017-12-21T13:46:24.639Z,1084
2017-12-21T13:47:24.626Z,1044
2017-12-21T13:48:24.921Z,992
2017-12-21T13:49:24.870Z,912
2017-12-21T13:50:24.299Z,860
2017-12-21T13:51:24.578Z,852
2017-12-21T13:52:25.084Z,844
2017-12-21T13:53:24.807Z,876
2017-12-21T13:54:24.559Z,864
2017-12-21T13:55:24.493Z,876
2017-12-21T13:56:24.747Z,912
2017-12-21T13:57:24.733Z,892
2017-12-21T13:58:24.221Z,860
2017-12-21T13:59:24.168Z,804
2017-12-21T14:00:24.780Z,788
2017-12-21T14:01:24.396Z,788
2017-12-21T14:02:24.108Z,760
2017-12-21T14:03:24.090Z,736